createdAt,value
2023-03-10T00:00:05.900Z,95962.41
2023-03-10T00:02:58.445Z,95956.19
2023-03-10T00:05:31.143Z,95952.44
2023-03-10T00:07:59.658Z,95944.03
2023-03-10T00:10:58.765Z,95934.41
2023-03-10T00:13:34.826Z,95939.22
2023-03-10T00:17:10.562Z,95937.94
2023-03-10T00:19:39.120Z,95941.84
2023-03-10T00:22:07.655Z,95929.03
2023-03-10T00:24:36.169Z,95922.75
2023-03-10T00:27:04.769Z,95928.69
2023-03-10T00:29:33.255Z,95936.19
2023-03-10T00:32:03.951Z,95928.75
2023-03-10T00:34:34.063Z,95932.84
2023-03-10T00:37:02.855Z,95925.75
2023-03-10T00:39:31.374Z,95923.47
2023-03-10T00:41:59.920Z,95912.63
2023-03-10T00:44:29.461Z,95914.44
2023-03-10T00:46:57.971Z,95916.84
2023-03-10T00:49:26.444Z,95900.06
2023-03-10T00:51:56.454Z,95898.53
2023-03-10T00:54:25.306Z,95887.38
2023-03-10T00:56:53.897Z,95894.78
2023-03-10T00:59:22.982Z,95878.22
2023-03-10T01:01:52.530Z,95885.94
2023-03-10T01:04:21.102Z,95887.75
2023-03-10T01:06:49.942Z,95874.34
2023-03-10T01:09:19.993Z,95876.16
2023-03-10T01:11:49.163Z,95881.03
2023-03-10T01:14:18.928Z,95878.66
2023-03-10T01:16:47.515Z,95864.72
2023-03-10T01:19:16.274Z,95860.09
2023-03-10T01:21:44.939Z,95858.16
2023-03-10T01:24:17.259Z,95854.00
2023-03-10T01:26:47.842Z,95850.22
2023-03-10T01:29:16.743Z,95834.94
2023-03-10T01:31:45.317Z,95822.94
2023-03-10T01:34:13.941Z,95809.06
2023-03-10T01:36:43.789Z,95818.81
2023-03-10T01:39:12.542Z,95825.53
2023-03-10T01:41:42.930Z,95805.75
2023-03-10T01:44:20.019Z,95789.78
2023-03-10T01:46:52.159Z,95798.75
2023-03-10T01:49:39.070Z,95783.22
2023-03-10T01:52:16.260Z,95781.72
2023-03-10T01:54:54.526Z,95766.63
2023-03-10T01:57:29.442Z,95769.25
2023-03-10T02:00:01.177Z,95761.56
2023-03-10T02:02:36.314Z,95752.31
2023-03-10T02:05:05.428Z,95753.00
2023-03-10T02:07:37.211Z,95754.56
2023-03-10T02:10:07.446Z,95747.97
2023-03-10T02:12:37.813Z,95752.84
2023-03-10T02:15:09.309Z,95750.34
2023-03-10T02:17:40.037Z,95750.25
2023-03-10T02:20:33.582Z,95739.25
2023-03-10T02:23:02.767Z,95742.75
2023-03-10T02:25:43.257Z,95746.66
2023-03-10T02:28:13.340Z,95745.38
2023-03-10T02:30:46.643Z,95724.34
2023-03-10T02:33:21.167Z,95734.66
2023-03-10T02:35:50.055Z,95724.19
2023-03-10T02:38:22.998Z,95707.03
2023-03-10T02:40:54.768Z,95704.66
2023-03-10T02:43:33.005Z,95701.03
2023-03-10T02:46:11.978Z,95699.88
2023-03-10T02:48:44.337Z,95702.13
2023-03-10T02:51:24.482Z,95696.91
2023-03-10T02:53:54.750Z,95693.31
2023-03-10T02:56:25.015Z,95689.25
2023-03-10T02:58:55.320Z,95688.38
2023-03-10T03:01:23.968Z,95682.09
2023-03-10T03:03:53.036Z,95674.00
2023-03-10T03:06:22.532Z,95666.06
2023-03-10T03:08:51.605Z,95660.22
2023-03-10T03:11:23.209Z,95653.59
2023-03-10T03:13:52.266Z,95653.25
2023-03-10T03:16:22.787Z,95647.94
2023-03-10T03:18:55.635Z,95675.97
2023-03-10T03:21:25.718Z,95651.41
2023-03-10T03:23:56.059Z,95689.75
2023-03-10T03:26:27.932Z,95660.38
2023-03-10T03:29:11.934Z,95659.16
2023-03-10T03:31:42.648Z,95653.63
2023-03-10T03:34:24.356Z,95644.63
2023-03-10T03:36:56.110Z,95644.13
2023-03-10T03:39:30.587Z,95651.44
2023-03-10T03:42:02.511Z,95659.72
2023-03-10T03:44:37.773Z,95667.59
2023-03-10T03:47:09.081Z,95666.91
2023-03-10T03:49:39.002Z,95671.47
2023-03-10T03:52:09.165Z,95674.69
2023-03-10T03:54:37.956Z,95664.84
2023-03-10T03:57:06.585Z,95669.63
2023-03-10T03:59:36.408Z,95674.34
2023-03-10T04:02:05.305Z,95670.06
2023-03-10T04:04:35.535Z,95662.38
2023-03-10T04:07:04.988Z,95658.13
2023-03-10T04:09:33.772Z,95669.44
2023-03-10T04:12:02.502Z,95663.41
2023-03-10T04:14:32.038Z,95661.00
2023-03-10T04:17:00.691Z,95669.00
2023-03-10T04:19:29.305Z,95658.97
2023-03-10T04:22:05.991Z,95668.75
2023-03-10T04:24:38.527Z,95681.81
2023-03-10T04:27:09.399Z,95683.03
2023-03-10T04:29:38.452Z,95684.09
2023-03-10T04:32:08.421Z,95694.53
2023-03-10T04:34:41.585Z,95692.28
2023-03-10T04:37:13.122Z,95699.59
2023-03-10T04:39:41.702Z,95703.53
2023-03-10T04:42:10.620Z,95703.94
2023-03-10T04:44:39.263Z,95697.25
2023-03-10T04:47:08.780Z,95698.31
2023-03-10T04:49:39.371Z,95711.47
2023-03-10T04:52:14.329Z,95721.47
2023-03-10T04:54:43.307Z,95718.19
2023-03-10T04:57:11.928Z,95715.91
2023-03-10T04:59:41.778Z,95722.19
2023-03-10T05:02:10.739Z,95716.09
2023-03-10T05:04:39.598Z,95701.63
2023-03-10T05:07:08.300Z,95699.25
2023-03-10T05:09:42.578Z,95696.56
2023-03-10T05:12:12.147Z,95707.47
2023-03-10T05:14:41.979Z,95700.66
2023-03-10T05:17:10.751Z,95716.16
2023-03-10T05:19:40.289Z,95722.47
2023-03-10T05:22:11.538Z,95724.97
2023-03-10T05:24:42.888Z,95719.47
2023-03-10T05:27:11.538Z,95732.50
2023-03-10T05:29:43.746Z,95724.47
2023-03-10T05:32:19.062Z,95722.19
2023-03-10T05:34:49.279Z,95733.19
2023-03-10T05:37:19.319Z,95739.34
2023-03-10T05:39:49.749Z,95743.81
2023-03-10T05:42:22.367Z,95741.19
2023-03-10T05:44:51.457Z,95739.34
2023-03-10T05:47:20.106Z,95740.91
2023-03-10T05:49:49.496Z,95735.44
2023-03-10T05:52:19.179Z,95735.50
2023-03-10T05:54:49.860Z,95731.50
2023-03-10T05:57:19.525Z,95729.44
2023-03-10T05:59:49.817Z,95717.47
2023-03-10T06:02:18.871Z,95716.38
2023-03-10T06:04:47.533Z,95716.78
2023-03-10T06:07:16.115Z,95718.34
2023-03-10T06:09:44.974Z,95708.72
2023-03-10T06:12:15.014Z,95720.28
2023-03-10T06:14:43.887Z,95714.00
2023-03-10T06:17:12.524Z,95705.59
2023-03-10T06:19:41.934Z,95700.31
2023-03-10T06:22:10.579Z,95697.63
2023-03-10T06:24:39.060Z,95709.59
2023-03-10T06:27:07.759Z,95695.91
2023-03-10T06:29:37.872Z,95689.00
2023-03-10T06:32:07.422Z,95689.63
2023-03-10T06:34:36.045Z,95679.78
2023-03-10T06:37:05.186Z,95679.91
2023-03-10T06:39:33.715Z,95669.50
2023-03-10T06:42:02.723Z,95673.09
2023-03-10T06:44:31.511Z,95676.00
2023-03-10T06:47:05.042Z,95662.63
2023-03-10T06:49:35.062Z,95664.91
2023-03-10T06:52:03.900Z,95672.50
2023-03-10T06:54:32.589Z,95662.50
2023-03-10T06:57:01.119Z,95657.19
2023-03-10T06:59:32.794Z,95659.91
2023-03-10T07:02:02.715Z,95654.47
2023-03-10T07:04:31.651Z,95642.63
2023-03-10T07:07:00.585Z,95645.03
2023-03-10T07:09:29.166Z,95648.91
2023-03-10T07:11:57.742Z,95646.00
2023-03-10T07:14:26.308Z,95651.63
2023-03-10T07:16:55.003Z,95648.97
2023-03-10T07:19:24.975Z,95640.88
2023-03-10T07:21:53.707Z,95648.00
2023-03-10T07:24:22.554Z,95639.75
2023-03-10T07:26:51.504Z,95639.81
2023-03-10T07:29:20.027Z,95638.97
2023-03-10T07:31:48.574Z,95634.34
2023-03-10T07:34:17.206Z,95632.88
2023-03-10T07:36:47.187Z,95649.16
2023-03-10T07:39:16.302Z,95642.25
2023-03-10T07:41:44.965Z,95651.38
2023-03-10T07:44:13.459Z,95644.78
2023-03-10T07:46:42.100Z,95652.44
2023-03-10T07:49:10.767Z,95642.94
2023-03-10T07:51:39.475Z,95647.47
2023-03-10T07:54:09.609Z,95638.69
2023-03-10T07:56:38.173Z,95635.63
2023-03-10T07:59:06.725Z,95632.91
2023-03-10T08:01:37.669Z,95627.38
2023-03-10T08:04:08.328Z,95618.00
2023-03-10T08:06:38.018Z,95623.13
2023-03-10T08:09:10.076Z,95622.94
2023-03-10T08:11:38.890Z,95609.75
2023-03-10T08:14:07.807Z,95607.75
2023-03-10T08:16:36.727Z,95610.34
2023-03-10T08:19:05.393Z,95606.00
2023-03-10T08:21:33.990Z,95604.34
2023-03-10T08:24:02.512Z,95598.03
2023-03-10T08:26:32.458Z,95600.09
2023-03-10T08:29:00.970Z,95596.25
2023-03-10T08:31:29.667Z,95593.28
2023-03-10T08:33:59.381Z,95588.78
2023-03-10T08:36:32.061Z,95585.34
2023-03-10T08:39:02.138Z,95582.81
2023-03-10T08:41:36.331Z,95571.66
2023-03-10T08:44:07.665Z,95568.47
2023-03-10T08:46:36.368Z,95564.09
2023-03-10T08:49:05.156Z,95562.09
2023-03-10T08:51:33.675Z,95559.44
2023-03-10T08:54:02.590Z,95561.06
2023-03-10T08:56:32.674Z,95556.78
2023-03-10T08:59:01.341Z,95554.66
2023-03-10T09:01:34.635Z,95558.59
2023-03-10T09:04:05.855Z,95562.22
2023-03-10T09:06:35.657Z,95555.19
2023-03-10T09:09:06.020Z,95559.94
2023-03-10T09:11:39.229Z,95556.84
2023-03-10T09:14:09.906Z,95556.50
2023-03-10T09:16:40.721Z,95557.31
2023-03-10T09:19:09.598Z,95554.97
2023-03-10T09:21:38.541Z,95551.03
2023-03-10T09:24:07.694Z,95559.25
2023-03-10T09:26:39.081Z,95559.25
2023-03-10T09:29:08.107Z,95556.50
2023-03-10T09:31:39.369Z,95568.59
2023-03-10T09:34:09.247Z,95566.56
2023-03-10T09:36:37.779Z,95563.50
2023-03-10T09:39:07.023Z,95556.44
2023-03-10T09:42:36.537Z,95539.66
2023-03-10T09:45:34.997Z,95546.59
2023-03-10T09:48:29.159Z,95539.22
2023-03-10T09:51:01.127Z,95539.16
2023-03-10T09:53:52.340Z,95530.56
2023-03-10T09:56:29.752Z,95527.41
2023-03-10T09:59:08.146Z,95520.56
2023-03-10T10:01:37.665Z,95528.97
2023-03-10T10:04:12.959Z,95513.22
2023-03-10T10:06:46.593Z,95517.84
2023-03-10T10:09:26.193Z,95516.88
2023-03-10T10:11:56.020Z,95518.56
2023-03-10T10:14:31.498Z,95516.81
2023-03-10T10:17:12.382Z,95522.53
2023-03-10T10:19:41.254Z,95512.75
2023-03-10T10:22:20.877Z,95515.13
2023-03-10T10:25:10.596Z,95499.03
2023-03-10T10:27:41.792Z,95512.03
2023-03-10T10:30:36.194Z,95498.41
2023-03-10T10:33:07.721Z,95502.47
2023-03-10T10:35:39.579Z,95496.53
2023-03-10T10:38:24.159Z,95492.72
2023-03-10T10:41:02.246Z,95482.25
2023-03-10T10:43:33.597Z,95482.41
2023-03-10T10:46:10.600Z,95481.81
2023-03-10T10:48:43.017Z,95481.31
2023-03-10T10:51:27.263Z,95489.97
2023-03-10T10:53:56.830Z,95516.63
2023-03-10T10:56:25.662Z,95520.59
2023-03-10T10:59:08.142Z,95524.56
2023-03-10T11:01:55.231Z,95512.81
2023-03-10T11:04:26.621Z,95513.09
2023-03-10T11:07:10.439Z,95522.50
2023-03-10T11:09:40.610Z,95506.53
2023-03-10T11:12:22.025Z,95498.41
2023-03-10T11:15:10.744Z,95479.28
2023-03-10T11:17:48.521Z,95470.19
2023-03-10T11:20:30.902Z,95460.94
2023-03-10T11:23:16.611Z,95458.47
2023-03-10T11:25:53.862Z,95457.84
2023-03-10T11:28:44.805Z,95452.94
2023-03-10T11:31:30.809Z,95444.66
2023-03-10T11:34:21.069Z,95448.09
2023-03-10T11:37:03.239Z,95440.88
2023-03-10T11:39:49.091Z,95433.97
2023-03-10T11:42:31.003Z,95428.03
2023-03-10T11:45:20.889Z,95436.53
2023-03-10T11:48:03.171Z,95416.03
2023-03-10T11:50:44.506Z,95413.38
2023-03-10T11:53:20.387Z,95414.34
2023-03-10T11:55:50.535Z,95411.56
2023-03-10T11:58:29.055Z,95420.41
2023-03-10T12:00:57.733Z,95417.94
2023-03-10T12:03:43.499Z,95417.63
2023-03-10T12:06:20.988Z,95422.59
2023-03-10T12:08:57.007Z,95432.22
2023-03-10T12:11:28.603Z,95429.06
2023-03-10T12:14:01.839Z,95434.59
2023-03-10T12:16:35.888Z,95436.44
2023-03-10T12:19:07.001Z,95437.41
2023-03-10T12:21:36.918Z,95428.38
2023-03-10T12:24:06.825Z,95430.66
2023-03-10T12:27:05.767Z,95424.00
2023-03-10T12:29:41.922Z,95421.72
2023-03-10T12:32:47.373Z,95427.19
2023-03-10T12:35:50.675Z,95407.41
2023-03-10T12:38:51.076Z,95398.41
2023-03-10T12:41:46.517Z,95416.25
2023-03-10T12:44:52.285Z,95407.03
2023-03-10T12:47:50.451Z,95402.16
2023-03-10T12:50:45.743Z,95401.16
2023-03-10T12:53:32.963Z,95399.59
2023-03-10T12:56:23.510Z,95404.28
2023-03-10T12:58:59.579Z,95402.81
2023-03-10T13:01:40.616Z,95426.66
2023-03-10T13:04:20.665Z,95418.25
2023-03-10T13:06:50.863Z,95401.09
2023-03-10T13:09:30.188Z,95408.44
2023-03-10T13:12:06.694Z,95401.72
2023-03-10T13:14:39.665Z,95405.31
2023-03-10T13:17:21.370Z,95414.44
2023-03-10T13:20:01.217Z,95404.03
2023-03-10T13:22:29.913Z,95414.56
2023-03-10T13:25:01.770Z,95410.94
2023-03-10T13:27:35.322Z,95417.97
2023-03-10T13:30:13.660Z,95423.72
2023-03-10T13:32:43.187Z,95412.66
2023-03-10T13:35:25.710Z,95420.19
2023-03-10T13:38:11.299Z,95417.28
2023-03-10T13:40:43.905Z,95410.81
2023-03-10T13:43:40.341Z,95403.22
2023-03-10T13:46:18.843Z,95408.84
2023-03-10T13:48:49.799Z,95407.06
2023-03-10T13:51:23.509Z,95402.94
2023-03-10T13:53:55.896Z,95410.38
2023-03-10T13:56:29.587Z,95400.03
2023-03-10T13:59:02.509Z,95393.13
2023-03-10T14:01:36.967Z,95381.16
2023-03-10T14:04:09.592Z,95377.66
2023-03-10T14:06:38.998Z,95374.44
2023-03-10T14:09:20.401Z,95392.47
2023-03-10T14:11:50.924Z,95393.66
2023-03-10T14:14:31.643Z,95370.78
2023-03-10T14:17:02.489Z,95407.56
2023-03-10T14:19:52.297Z,95390.28
2023-03-10T14:22:36.932Z,95399.16
2023-03-10T14:25:13.772Z,95388.09
2023-03-10T14:27:46.615Z,95384.47
2023-03-10T14:30:27.101Z,95390.00
2023-03-10T14:32:57.876Z,95390.69
2023-03-10T14:35:30.003Z,95399.44
2023-03-10T14:37:59.127Z,95394.72
2023-03-10T14:40:27.909Z,95397.09
2023-03-10T14:43:02.913Z,95393.84
2023-03-10T14:45:36.454Z,95400.31
2023-03-10T14:48:13.703Z,95398.31
2023-03-10T14:50:42.414Z,95390.91
2023-03-10T14:53:12.467Z,95402.66
2023-03-10T14:55:41.879Z,95396.72
2023-03-10T14:58:17.899Z,95390.31
2023-03-10T15:00:48.241Z,95398.22
2023-03-10T15:03:17.374Z,95412.81
2023-03-10T15:05:49.017Z,95421.94
2023-03-10T15:08:18.847Z,95420.03
2023-03-10T15:10:51.029Z,95436.53
2023-03-10T15:13:23.727Z,95435.75
2023-03-10T15:15:54.183Z,95426.41
2023-03-10T15:18:27.028Z,95418.63
2023-03-10T15:20:58.996Z,95427.22
2023-03-10T15:23:29.336Z,95431.09
2023-03-10T15:25:59.341Z,95426.41
2023-03-10T15:28:27.950Z,95431.84
2023-03-10T15:30:58.162Z,95433.03
2023-03-10T15:33:27.377Z,95433.03
2023-03-10T15:35:56.115Z,95436.16
2023-03-10T15:38:25.074Z,95443.53
2023-03-10T15:40:53.920Z,95450.53
2023-03-10T15:43:22.637Z,95447.41
2023-03-10T15:45:51.518Z,95453.66
2023-03-10T15:48:21.716Z,95454.81
2023-03-10T15:50:50.400Z,95452.44
2023-03-10T15:53:18.954Z,95467.56
2023-03-10T15:55:48.418Z,95474.88
2023-03-10T15:58:17.100Z,95485.03
2023-03-10T16:00:46.122Z,95484.59
2023-03-10T16:03:18.241Z,95482.19
2023-03-10T16:05:49.895Z,95485.16
2023-03-10T16:08:19.252Z,95494.94
2023-03-10T16:10:54.940Z,95504.63
2023-03-10T16:13:25.194Z,95496.31
2023-03-10T16:15:54.125Z,95493.97
2023-03-10T16:18:23.019Z,95504.47
2023-03-10T16:20:58.843Z,95504.47
2023-03-10T16:23:28.550Z,95500.94
2023-03-10T16:26:10.505Z,95517.16
2023-03-10T16:28:42.541Z,95510.16
2023-03-10T16:31:13.147Z,95510.09
2023-03-10T16:33:42.120Z,95528.59
2023-03-10T16:36:16.867Z,95520.78
2023-03-10T16:38:45.909Z,95541.56
2023-03-10T16:41:14.930Z,95542.34
2023-03-10T16:43:44.394Z,95539.53
2023-03-10T16:46:15.647Z,95543.06
2023-03-10T16:48:46.901Z,95561.28
2023-03-10T16:51:25.990Z,95561.66
2023-03-10T16:53:56.922Z,95554.22
2023-03-10T16:56:26.616Z,95562.66
2023-03-10T16:58:56.227Z,95551.22
2023-03-10T17:01:25.979Z,95556.19
2023-03-10T17:03:55.586Z,95555.19
2023-03-10T17:06:28.732Z,95545.53
2023-03-10T17:08:58.176Z,95540.84
2023-03-10T17:11:30.434Z,95558.03
2023-03-10T17:14:02.402Z,95543.94
2023-03-10T17:16:33.159Z,95549.28
2023-03-10T17:19:05.594Z,95553.28
2023-03-10T17:21:40.668Z,95548.59
2023-03-10T17:24:11.740Z,95565.53
2023-03-10T17:26:40.930Z,95565.47
2023-03-10T17:29:10.744Z,95563.88
2023-03-10T17:31:40.550Z,95573.31
2023-03-10T17:34:14.323Z,95567.75
2023-03-10T17:36:45.094Z,95584.16
2023-03-10T17:39:19.962Z,95584.81
2023-03-10T17:41:49.645Z,95596.53
2023-03-10T17:44:18.635Z,95627.66
2023-03-10T17:46:47.684Z,95625.19
2023-03-10T17:49:18.114Z,95615.31
2023-03-10T17:51:48.375Z,95620.66
2023-03-10T17:54:21.098Z,95633.13
2023-03-10T17:56:50.855Z,95641.75
2023-03-10T17:59:19.841Z,95642.94
2023-03-10T18:01:49.577Z,95653.56
2023-03-10T18:04:18.623Z,95667.34
2023-03-10T18:06:48.613Z,95668.13
2023-03-10T18:09:17.357Z,95689.16
2023-03-10T18:11:46.026Z,95697.34
2023-03-10T18:14:14.556Z,95685.16
2023-03-10T18:16:43.166Z,95699.41
2023-03-10T18:19:12.202Z,95703.53
2023-03-10T18:21:41.148Z,95708.09
2023-03-10T18:24:12.021Z,95708.84
2023-03-10T18:26:43.295Z,95713.25
2023-03-10T18:29:13.169Z,95718.34
2023-03-10T18:31:42.448Z,95711.97
2023-03-10T18:34:12.900Z,95717.47
2023-03-10T18:36:41.615Z,95729.00
2023-03-10T18:39:12.484Z,95739.53
2023-03-10T18:41:41.268Z,95757.50
2023-03-10T18:44:09.839Z,95758.50
2023-03-10T18:46:38.520Z,95754.31
2023-03-10T18:49:07.350Z,95732.91
2023-03-10T18:51:35.996Z,95744.66
2023-03-10T18:54:06.787Z,95738.66
2023-03-10T18:56:37.044Z,95729.75
2023-03-10T18:59:05.658Z,95739.00
2023-03-10T19:01:34.435Z,95744.78
2023-03-10T19:04:03.409Z,95750.00
2023-03-10T19:06:33.802Z,95730.66
2023-03-10T19:09:03.492Z,95729.53
2023-03-10T19:11:37.519Z,95741.91
2023-03-10T19:14:07.822Z,95723.53
2023-03-10T19:16:36.644Z,95717.59
2023-03-10T19:19:05.474Z,95713.03
2023-03-10T19:21:36.213Z,95721.63
2023-03-10T19:24:06.086Z,95725.94
2023-03-10T19:26:36.089Z,95718.31
2023-03-10T19:29:05.159Z,95717.91
2023-03-10T19:31:34.224Z,95711.72
2023-03-10T19:34:03.295Z,95700.59
2023-03-10T19:36:31.791Z,95716.91
2023-03-10T19:39:00.426Z,95709.88
2023-03-10T19:41:29.308Z,95695.25
2023-03-10T19:43:59.685Z,95698.41
2023-03-10T19:46:28.640Z,95708.06
2023-03-10T19:48:57.318Z,95708.84
2023-03-10T19:51:28.549Z,95699.44
2023-03-10T19:53:59.082Z,95701.44
2023-03-10T19:56:27.856Z,95688.19
2023-03-10T19:58:58.353Z,95702.47
2023-03-10T20:01:29.253Z,95694.81
2023-03-10T20:04:00.874Z,95683.16
2023-03-10T20:06:30.588Z,95694.06
2023-03-10T20:08:59.372Z,95684.63
2023-03-10T20:11:28.002Z,95685.28
2023-03-10T20:13:58.174Z,95693.13
2023-03-10T20:16:27.874Z,95687.84
2023-03-10T20:18:56.852Z,95699.38
2023-03-10T20:21:25.890Z,95686.56
2023-03-10T20:23:56.305Z,95689.09
2023-03-10T20:26:25.315Z,95685.22
2023-03-10T20:28:54.261Z,95697.88
2023-03-10T20:31:26.135Z,95700.25
2023-03-10T20:33:55.204Z,95719.66
2023-03-10T20:36:24.037Z,95714.38
2023-03-10T20:38:52.661Z,95723.59
2023-03-10T20:41:22.204Z,95721.84
2023-03-10T20:43:53.409Z,95719.72
2023-03-10T20:46:24.804Z,95729.38
2023-03-10T20:48:53.499Z,95723.91
2023-03-10T20:51:22.676Z,95726.59
2023-03-10T20:53:52.449Z,95729.69
2023-03-10T20:56:21.023Z,95725.50
2023-03-10T20:58:49.740Z,95728.06
2023-03-10T21:01:22.106Z,95740.25
2023-03-10T21:03:54.605Z,95736.84
2023-03-10T21:06:24.259Z,95749.22
2023-03-10T21:08:53.693Z,95742.75
2023-03-10T21:11:22.674Z,95747.56
2023-03-10T21:13:51.845Z,95737.34
2023-03-10T21:16:21.033Z,95733.44
2023-03-10T21:18:51.064Z,95731.94
2023-03-10T21:21:19.834Z,95738.16
2023-03-10T21:23:48.405Z,95744.53
2023-03-10T21:26:23.800Z,95756.09
2023-03-10T21:28:52.348Z,95774.06
2023-03-10T21:31:21.022Z,95773.13
2023-03-10T21:33:51.225Z,95788.34
2023-03-10T21:36:23.142Z,95798.66
2023-03-10T21:38:52.757Z,95804.63
2023-03-10T21:41:25.960Z,95797.66
2023-03-10T21:43:55.499Z,95812.16
2023-03-10T21:46:25.787Z,95799.38
2023-03-10T21:48:55.877Z,95809.25
2023-03-10T21:51:26.553Z,95818.44
2023-03-10T21:53:56.803Z,95813.06
2023-03-10T21:56:28.229Z,95809.91
2023-03-10T21:58:57.781Z,95815.63
2023-03-10T22:01:27.462Z,95807.88
2023-03-10T22:03:57.994Z,95825.31
2023-03-10T22:06:26.726Z,95843.72
2023-03-10T22:08:55.283Z,95849.56
2023-03-10T22:11:23.787Z,95865.03
2023-03-10T22:13:54.983Z,95885.91
2023-03-10T22:16:25.911Z,95886.38
2023-03-10T22:18:56.011Z,95902.81
2023-03-10T22:21:24.508Z,95897.75
2023-03-10T22:23:53.040Z,95894.25
2023-03-10T22:26:21.734Z,95935.53
2023-03-10T22:28:50.232Z,95930.44
2023-03-10T22:31:20.984Z,95924.81
2023-03-10T22:33:49.650Z,95951.91
2023-03-10T22:36:19.680Z,95952.13
2023-03-10T22:38:48.193Z,95969.66
2023-03-10T22:41:16.939Z,95966.66
2023-03-10T22:43:45.539Z,95992.44
2023-03-10T22:46:17.232Z,95985.66
2023-03-10T22:48:45.876Z,96008.91
2023-03-10T22:51:17.631Z,95997.53
2023-03-10T22:53:48.066Z,96012.09
2023-03-10T22:56:16.646Z,96021.28
2023-03-10T22:58:45.510Z,96026.34
2023-03-10T23:01:14.340Z,96028.44
2023-03-10T23:03:42.883Z,96051.22
2023-03-10T23:06:13.955Z,96066.06
2023-03-10T23:08:43.704Z,96066.88
2023-03-10T23:11:16.668Z,96081.56
2023-03-10T23:13:45.774Z,96073.69
2023-03-10T23:16:14.509Z,96082.06
2023-03-10T23:18:43.107Z,96096.47
2023-03-10T23:21:11.857Z,96091.38
2023-03-10T23:23:43.605Z,96094.69
2023-03-10T23:26:13.900Z,96102.44
2023-03-10T23:28:42.604Z,96122.38
2023-03-10T23:31:15.471Z,96125.06
2023-03-10T23:33:45.040Z,96136.13
2023-03-10T23:36:13.858Z,96129.81
2023-03-10T23:38:42.400Z,96128.22
2023-03-10T23:41:10.979Z,96132.00
2023-03-10T23:43:41.486Z,96146.06
2023-03-10T23:46:10.775Z,96156.03
2023-03-10T23:48:39.488Z,96146.06
2023-03-10T23:51:15.040Z,96170.75
2023-03-10T23:53:44.623Z,96176.91
2023-03-10T23:56:13.189Z,96211.84
2023-03-10T23:58:43.220Z,96199.81
